Time;durP1;ratioP1;P1;durP2;ratioP2;P2;SDS_P1;SDS_P2;PMS_P1;PMS_P2;Temp;Humidity;BMP_temperature;BMP_pressure;BME280_temperature;BME280_humidity;BME280_pressure;Samples;Min_cycle;Max_cycle;Signal;HPM_P1;HPM_P2
2022/02/01 00:04:02;;;;;;;22.67;12.32;;;128.20;2252.80;;;;;;5043509;28;20075;-70
2022/02/01 00:11:47;;;;;;;18.83;11.35;;;128.30;2252.80;;;;;;5048602;28;20037;-71
2022/02/01 00:14:26;;;;;;;22.55;14.82;;;128.30;2252.80;;;;;;5019651;28;20515;-71
2022/02/01 00:35:44;;;;;;;39.70;27.20;;;128.00;2252.80;;;;;;5046476;28;20048;-72
2022/02/01 00:38:18;;;;;;;30.45;21.25;;;128.00;2252.80;;;;;;5028497;28;20099;-71
2022/02/01 00:40:53;;;;;;;27.10;16.48;;;128.00;1945.60;;;;;;5029980;28;20123;-71
2022/02/01 00:43:18;;;;;;;25.42;13.60;;;128.10;2252.80;;;;;;5034811;28;20025;-72
2022/02/01 00:45:44;;;;;;;15.25;9.10;;;128.00;2252.80;;;;;;5029724;28;20477;-71
2022/02/01 00:48:10;;;;;;;14.32;8.25;;;128.10;2252.80;;;;;;5043335;28;20383;-71
2022/02/01 00:50:36;;;;;;;11.07;5.80;;;128.20;2252.80;;;;;;5043125;28;20086;-71
2022/02/01 00:53:02;;;;;;;12.40;5.95;;;128.20;2252.80;;;;;;5041784;28;20033;-71
2022/02/01 00:55:27;;;;;;;11.07;5.28;;;128.20;2252.80;;;;;;5022372;28;20029;-71
2022/02/01 00:57:53;;;;;;;14.13;5.25;;;128.20;2252.80;;;;;;5040402;28;20932;-72
2022/02/01 01:00:19;;;;;;;10.05;5.32;;;128.20;2252.80;;;;;;5030163;28;20025;-71
2022/02/01 01:02:45;;;;;;;12.48;7.07;;;128.30;2252.80;;;;;;5031148;28;20025;-71
2022/02/01 01:05:11;;;;;;;12.18;7.60;;;128.30;2252.80;;;;;;5026952;28;20036;-71
2022/02/01 01:07:36;;;;;;;13.55;6.15;;;128.30;2252.80;;;;;;5046259;28;20036;-70
2022/02/01 01:10:05;;;;;;;11.93;6.80;;;128.30;2252.80;;;;;;5043690;28;20426;-71
2022/02/01 01:12:34;;;;;;;11.05;5.82;;;128.20;2252.80;;;;;;5022671;28;20029;-71
2022/02/01 01:44:52;;;;;;;18.42;10.02;;;103.00;2227.20;;;;;;4972358;28;20102;-72
2022/02/01 01:55:40;;;;;;;17.45;8.45;;;102.90;2227.20;;;;;;4974054;28;20836;-72
2022/02/01 01:58:07;;;;;;;23.70;9.88;;;102.90;2227.20;;;;;;5041172;28;20104;-73
2022/02/01 02:03:18;;;;;;;19.45;10.60;;;103.00;2227.20;;;;;;5042828;28;20036;-73
2022/02/01 02:05:44;;;;;;;18.67;9.30;;;103.00;2227.20;;;;;;5042087;28;20029;-71
2022/02/01 02:08:11;;;;;;;20.13;8.60;;;103.00;2227.20;;;;;;5042834;28;20064;-72
2022/02/01 02:10:47;;;;;;;18.33;9.60;;;103.00;2227.20;;;;;;5048174;28;20024;-72
2022/02/01 02:15:59;;;;;;;22.75;10.18;;;103.00;2227.20;;;;;;5038627;28;20266;-72
2022/02/01 02:18:28;;;;;;;18.85;10.15;;;103.00;2227.20;;;;;;5048722;28;20031;-72
2022/02/01 02:20:56;;;;;;;20.92;10.88;;;103.00;2227.20;;;;;;5045181;28;20031;-71
2022/02/01 02:23:23;;;;;;;27.00;11.93;;;103.10;2227.20;;;;;;5043719;28;20055;-72
2022/02/01 02:25:50;;;;;;;21.42;12.43;;;103.20;2227.20;;;;;;5041007;28;21649;-72
2022/02/01 02:28:18;;;;;;;25.85;12.18;;;103.20;2227.20;;;;;;5047045;28;20361;-72
2022/02/01 02:30:45;;;;;;;29.45;12.48;;;103.30;2227.20;;;;;;5045316;28;20022;-72
2022/02/01 02:33:14;;;;;;;21.58;11.63;;;103.30;2227.20;;;;;;5046245;28;20476;-72
2022/02/01 02:35:57;;;;;;;19.10;10.73;;;103.20;2227.20;;;;;;5028643;28;20064;-72
2022/02/01 02:38:33;;;;;;;25.90;12.32;;;103.10;2227.20;;;;;;5030994;28;20031;-72
2022/02/01 02:46:24;;;;;;;27.73;13.52;;;103.10;2227.20;;;;;;5034953;28;20033;-72
2022/02/01 02:48:50;;;;;;;22.70;11.57;;;103.10;2227.20;;;;;;5025619;28;20025;-73
2022/02/01 02:51:16;;;;;;;23.70;11.93;;;103.20;2227.20;;;;;;5029391;28;20025;-72
2022/02/01 02:53:42;;;;;;;25.95;11.38;;;103.20;2227.20;;;;;;5043521;28;20024;-72
2022/02/01 02:56:08;;;;;;;22.25;11.43;;;103.20;2227.20;;;;;;5027419;28;20104;-72
2022/02/01 02:58:34;;;;;;;32.45;14.90;;;103.20;2227.20;;;;;;5051463;28;20021;-72
2022/02/01 03:01:00;;;;;;;29.58;15.38;;;103.20;2227.20;;;;;;5046929;28;20461;-72
2022/02/01 03:03:26;;;;;;;22.25;13.15;;;103.10;2227.20;;;;;;5031614;28;20045;-73
2022/02/01 03:05:52;;;;;;;29.77;12.73;;;103.10;2227.20;;;;;;5026274;28;20037;-72
2022/02/01 03:08:18;;;;;;;28.83;14.02;;;103.00;2227.20;;;;;;5043875;28;20028;-71
2022/02/01 03:10:45;;;;;;;35.10;13.93;;;102.90;2227.20;;;;;;5026168;28;20017;-71
2022/02/01 03:13:28;;;;;;;26.48;14.52;;;102.90;2227.20;;;;;;5043451;28;20387;-71
2022/02/01 03:16:10;;;;;;;32.75;15.45;;;102.90;2227.20;;;;;;5044228;28;20025;-72
2022/02/01 03:21:19;;;;;;;32.10;14.35;;;102.90;2227.20;;;;;;5041166;28;20033;-71
2022/02/01 03:23:45;;;;;;;26.60;15.70;;;102.90;2227.20;;;;;;5047085;28;20049;-72
2022/02/01 03:26:11;;;;;;;34.03;15.35;;;102.90;2227.20;;;;;;5042527;28;20036;-71
2022/02/01 03:28:37;;;;;;;30.77;15.05;;;102.80;2227.20;;;;;;5039444;28;20025;-72
2022/02/01 03:31:03;;;;;;;34.40;14.48;;;102.80;2227.20;;;;;;5022452;28;20075;-72
2022/02/01 03:33:28;;;;;;;30.85;14.55;;;102.80;2227.20;;;;;;5048093;28;20029;-72
2022/02/01 03:35:54;;;;;;;24.58;15.27;;;102.90;2227.20;;;;;;5040910;28;20468;-72
2022/02/01 03:38:20;;;;;;;30.55;13.63;;;102.80;2227.20;;;;;;5043005;28;20064;-72
2022/02/01 03:40:46;;;;;;;30.05;13.48;;;102.80;2227.20;;;;;;5025676;28;20021;-72
2022/02/01 03:43:11;;;;;;;27.00;12.65;;;102.90;2227.20;;;;;;5022624;28;20029;-73
2022/02/01 03:45:37;;;;;;;30.48;13.50;;;102.90;2227.20;;;;;;5026460;28;20531;-73
2022/02/01 03:48:03;;;;;;;27.95;13.25;;;103.00;2227.20;;;;;;5020318;28;20022;-73
2022/02/01 03:50:29;;;;;;;22.88;13.15;;;103.00;2227.20;;;;;;5040920;28;20101;-73
2022/02/01 03:52:55;;;;;;;25.48;12.98;;;103.10;2227.20;;;;;;5042982;28;20464;-72
2022/02/01 03:55:21;;;;;;;24.77;12.90;;;103.10;2227.20;;;;;;5032202;28;20037;-72
2022/02/01 03:57:47;;;;;;;21.00;11.82;;;103.10;2227.20;;;;;;5044392;28;20037;-71
2022/02/01 04:00:13;;;;;;;25.75;11.60;;;103.10;2227.20;;;;;;5044038;28;20045;-72
2022/02/01 04:02:39;;;;;;;26.40;12.52;;;103.10;2227.20;;;;;;5042611;28;20056;-72
2022/02/01 04:05:06;;;;;;;23.50;12.15;;;103.10;2227.20;;;;;;5024845;28;20030;-72
2022/02/01 04:07:31;;;;;;;28.63;14.15;;;103.10;2227.20;;;;;;5047999;28;20476;-72
2022/02/01 04:09:57;;;;;;;27.35;13.30;;;103.10;2227.20;;;;;;5045404;28;20056;-72
2022/02/01 04:12:24;;;;;;;38.83;15.60;;;103.20;2227.20;;;;;;5044547;28;20392;-72
2022/02/01 04:14:52;;;;;;;27.80;15.90;;;103.10;2227.20;;;;;;5023252;28;20041;-71
2022/02/01 04:17:18;;;;;;;61.83;29.75;;;103.20;2227.20;;;;;;5037333;28;20483;-72
2022/02/01 04:19:46;;;;;;;56.00;24.73;;;103.10;2227.20;;;;;;5027630;28;20037;-71
2022/02/01 04:22:11;;;;;;;39.72;20.45;;;103.20;2227.20;;;;;;5046484;28;20066;-72
2022/02/01 04:24:43;;;;;;;53.35;28.42;;;103.20;2227.20;;;;;;5039706;28;20029;-72
2022/02/01 04:27:16;;;;;;;55.17;28.65;;;103.20;2227.20;;;;;;5028151;28;20017;-71
2022/02/01 04:29:47;;;;;;;54.08;26.23;;;103.20;2227.20;;;;;;5042020;28;20020;-71
2022/02/01 04:32:13;;;;;;;53.50;23.30;;;103.20;2227.20;;;;;;5027318;28;20040;-72
2022/02/01 04:34:38;;;;;;;36.67;19.75;;;103.20;2227.20;;;;;;5039630;28;20388;-71
2022/02/01 04:37:04;;;;;;;32.05;16.30;;;103.20;2227.20;;;;;;5023978;28;20033;-71
2022/02/01 04:39:30;;;;;;;33.22;18.65;;;103.20;2227.20;;;;;;5031803;28;20028;-72
2022/02/01 04:41:55;;;;;;;30.65;17.58;;;103.20;2227.20;;;;;;5044856;28;20061;-71
2022/02/01 04:44:23;;;;;;;34.17;17.20;;;103.20;2227.20;;;;;;5031310;28;20068;-71
2022/02/01 04:46:49;;;;;;;33.83;15.68;;;103.20;2227.20;;;;;;5034877;28;20399;-71
2022/02/01 04:49:14;;;;;;;27.85;15.52;;;103.20;2227.20;;;;;;5026585;28;20112;-72
2022/02/01 04:51:40;;;;;;;29.50;16.85;;;103.10;2227.20;;;;;;5046775;28;20025;-72
2022/02/01 04:54:07;;;;;;;33.13;16.45;;;103.10;2227.20;;;;;;5030492;28;20045;-72
2022/02/01 04:56:33;;;;;;;33.08;18.58;;;103.10;2227.20;;;;;;5051120;28;20021;-73
2022/02/01 04:58:58;;;;;;;46.03;25.83;;;103.10;2227.20;;;;;;5044766;28;20087;-72
2022/02/01 05:01:35;;;;;;;51.67;25.80;;;102.90;2227.20;;;;;;5045844;28;20384;-72
2022/02/01 05:04:00;;;;;;;;;;;102.90;2227.20;;;;;;5033613;28;20479;-70
2022/02/01 05:06:28;;;;;;;50.90;21.43;;;102.90;2227.20;;;;;;5034586;28;20158;-71
2022/02/01 05:08:54;;;;;;;32.67;18.00;;;102.80;2227.20;;;;;;5052357;28;20025;-71
2022/02/01 05:11:20;;;;;;;35.33;17.83;;;102.90;2227.20;;;;;;5031738;28;20032;-71
2022/02/01 05:13:59;;;;;;;33.75;17.63;;;102.90;2227.20;;;;;;5048288;28;20376;-72
2022/02/01 05:16:35;;;;;;;32.05;17.50;;;102.90;2227.20;;;;;;5045688;28;20025;-71
2022/02/01 05:19:04;;;;;;;37.00;17.25;;;102.90;2227.20;;;;;;5034716;28;20449;-71
2022/02/01 05:21:31;;;;;;;29.90;18.77;;;103.00;2227.20;;;;;;5034882;28;20040;-71
2022/02/01 05:23:57;;;;;;;33.78;18.65;;;102.90;2227.20;;;;;;5055043;28;20411;-72
2022/02/01 05:26:25;;;;;;;41.88;17.27;;;102.90;2227.20;;;;;;5049584;28;20353;-72
2022/02/01 05:28:51;;;;;;;29.55;16.55;;;102.90;2227.20;;;;;;5048217;28;20017;-71
2022/02/01 05:31:17;;;;;;;28.98;17.10;;;102.90;2227.20;;;;;;5022432;28;20033;-71
2022/02/01 05:33:43;;;;;;;30.73;16.73;;;102.90;2227.20;;;;;;5051875;28;20028;-71
2022/02/01 05:36:09;;;;;;;30.20;16.90;;;102.90;2227.20;;;;;;5029702;28;20029;-72
2022/02/01 05:38:35;;;;;;;35.55;16.17;;;102.80;2227.20;;;;;;5052348;28;20021;-71
2022/02/01 05:41:01;;;;;;;31.02;17.67;;;102.80;2227.20;;;;;;5025681;28;20106;-72
2022/02/01 05:43:28;;;;;;;35.70;18.42;;;102.80;2227.20;;;;;;5045089;28;20028;-72
2022/02/01 05:45:59;;;;;;;36.30;19.30;;;102.80;2227.20;;;;;;5047033;28;20484;-72
2022/02/01 05:48:26;;;;;;;40.15;20.05;;;102.70;2227.20;;;;;;5028350;28;20036;-73
2022/02/01 05:50:54;;;;;;;34.80;19.15;;;102.80;2227.20;;;;;;5049156;28;20095;-72
2022/02/01 05:53:20;;;;;;;29.60;18.70;;;102.90;2227.20;;;;;;5051838;28;20098;-72
2022/02/01 05:55:48;;;;;;;39.63;20.48;;;102.80;2227.20;;;;;;5045163;28;20484;-72
2022/02/01 05:58:14;;;;;;;38.75;21.42;;;102.70;2227.20;;;;;;5044708;28;20053;-72
2022/02/01 06:00:41;;;;;;;44.55;19.80;;;102.70;2227.20;;;;;;5034999;28;20028;-72
2022/02/01 06:03:07;;;;;;;37.70;20.98;;;102.70;2227.20;;;;;;5029104;28;20037;-71
2022/02/01 06:05:33;;;;;;;55.28;24.70;;;102.70;2227.20;;;;;;5026500;28;20029;-71
2022/02/01 06:07:59;;;;;;;35.10;19.98;;;102.70;2227.20;;;;;;5046772;28;20021;-71
2022/02/01 06:10:25;;;;;;;28.30;18.27;;;102.70;2227.20;;;;;;5049360;28;20479;-72
2022/02/01 06:12:51;;;;;;;38.70;20.92;;;102.90;2227.20;;;;;;5041937;28;20032;-72
2022/02/01 06:15:22;;;;;;;45.38;25.23;;;102.70;2227.20;;;;;;5044450;28;20053;-71
2022/02/01 06:17:47;;;;;;;44.00;25.00;;;102.60;2227.20;;;;;;5031335;28;20033;-72
2022/02/01 06:20:14;;;;;;;40.08;23.45;;;102.70;2227.20;;;;;;5043708;28;20632;-72
2022/02/01 06:22:41;;;;;;;40.33;24.85;;;102.70;2227.20;;;;;;5048625;28;20850;-71
2022/02/01 06:25:08;;;;;;;34.80;20.48;;;102.60;2227.20;;;;;;5041628;28;20120;-72
2022/02/01 06:27:34;;;;;;;33.92;20.05;;;102.70;2227.20;;;;;;5047599;28;20025;-72
2022/02/01 06:30:01;;;;;;;36.33;22.88;;;102.70;2227.20;;;;;;5047015;28;20020;-71
2022/02/01 06:32:32;;;;;;;36.25;19.27;;;102.70;2227.20;;;;;;5047411;28;20092;-72
2022/02/01 06:34:57;;;;;;;36.58;20.25;;;102.60;2227.20;;;;;;5046559;28;20026;-71
2022/02/01 06:37:23;;;;;;;37.13;20.75;;;102.70;2227.20;;;;;;5040968;28;20029;-71
2022/02/01 06:39:49;;;;;;;35.75;20.83;;;102.70;2227.20;;;;;;5045347;28;20054;-71
2022/02/01 06:42:16;;;;;;;42.65;23.52;;;102.70;2227.20;;;;;;5024795;28;20401;-72
2022/02/01 06:44:43;;;;;;;38.60;24.92;;;102.70;2227.20;;;;;;5030770;28;20036;-71
2022/02/01 06:47:08;;;;;;;49.65;30.27;;;102.70;2227.20;;;;;;5042801;28;20036;-71
2022/02/01 06:49:34;;;;;;;47.70;27.42;;;102.60;2227.20;;;;;;5032686;28;20484;-72
2022/02/01 06:52:01;;;;;;;56.35;31.65;;;102.60;2227.20;;;;;;5046720;28;20048;-72
2022/02/01 06:54:28;;;;;;;57.55;30.73;;;102.60;2227.20;;;;;;5022330;28;20069;-71
2022/02/01 06:56:54;;;;;;;56.72;30.77;;;102.60;2227.20;;;;;;5031899;28;20037;-71
2022/02/01 06:59:19;;;;;;;69.53;39.35;;;102.60;2227.20;;;;;;5028135;28;20030;-71
2022/02/01 07:01:45;;;;;;;111.15;62.38;;;102.70;2227.20;;;;;;5048201;28;20025;-71
2022/02/01 07:04:11;;;;;;;70.70;39.38;;;102.60;2227.20;;;;;;5052882;28;20032;-72
2022/02/01 07:06:37;;;;;;;75.00;44.33;;;102.60;2227.20;;;;;;5027317;28;20029;-72
2022/02/01 07:09:04;;;;;;;77.90;42.75;;;102.50;2227.20;;;;;;5021564;28;20025;-72
2022/02/01 07:11:30;;;;;;;66.55;37.88;;;102.40;2227.20;;;;;;5026024;28;20029;-71
2022/02/01 07:13:56;;;;;;;69.60;41.80;;;77.70;2227.20;;;;;;5046919;28;20026;-71
2022/02/01 07:16:22;;;;;;;78.60;43.38;;;77.70;2227.20;;;;;;5028665;28;20476;-72
2022/02/01 07:18:48;;;;;;;61.58;39.33;;;77.70;2227.20;;;;;;5050114;28;20055;-71
2022/02/01 07:21:16;;;;;;;71.18;42.55;;;102.40;2227.20;;;;;;5050876;28;20079;-72
2022/02/01 07:23:42;;;;;;;55.05;36.00;;;102.40;2227.20;;;;;;5049711;28;20095;-72
2022/02/01 07:26:08;;;;;;;64.30;40.00;;;77.70;2227.20;;;;;;5049853;28;20492;-71
2022/02/01 07:28:34;;;;;;;91.70;52.45;;;77.70;2227.20;;;;;;5059332;28;20017;-71
2022/02/01 07:31:00;;;;;;;101.55;53.45;;;77.50;2227.20;;;;;;5039487;28;20028;-71
2022/02/01 07:33:27;;;;;;;81.20;51.00;;;77.50;2227.20;;;;;;5066252;28;20028;-71
2022/02/01 07:35:55;;;;;;;75.95;47.40;;;77.50;2227.20;;;;;;5053371;28;20032;-72
2022/02/01 07:38:24;;;;;;;72.80;41.38;;;77.50;2227.20;;;;;;5044286;28;20078;-71
2022/02/01 07:40:54;;;;;;;75.05;44.25;;;77.30;2227.20;;;;;;5056395;28;20036;-71
2022/02/01 07:43:21;;;;;;;75.93;43.72;;;77.30;1843.20;;;;;;5055446;28;20035;-72
2022/02/01 07:45:48;;;;;;;69.32;42.70;;;77.20;1920.00;;;;;;5057327;28;20151;-72
2022/02/01 07:48:15;;;;;;;78.95;43.67;;;77.20;2227.20;;;;;;5051328;28;20571;-72
2022/02/01 07:50:42;;;;;;;74.75;41.80;;;77.20;2227.20;;;;;;5033732;28;20029;-72
2022/02/01 07:53:10;;;;;;;70.65;44.60;;;77.20;2227.20;;;;;;5064905;28;20024;-71
2022/02/01 07:55:36;;;;;;;69.38;43.45;;;77.20;2022.40;;;;;;5051213;28;20163;-71
2022/02/01 07:58:02;;;;;;;76.45;45.53;;;77.30;2227.20;;;;;;5050701;28;20032;-72
2022/02/01 08:00:29;;;;;;;77.32;41.67;;;77.30;2124.80;;;;;;5050980;28;20100;-72
2022/02/01 08:02:55;;;;;;;67.57;37.13;;;77.40;1894.40;;;;;;5027825;28;20083;-71
2022/02/01 08:05:24;;;;;;;49.53;29.63;;;77.50;2227.20;;;;;;5026509;28;20021;-71
2022/02/01 08:07:51;;;;;;;48.78;29.23;;;77.50;2227.20;;;;;;5038813;28;20024;-71
2022/02/01 08:10:17;;;;;;;48.40;29.85;;;77.60;2227.20;;;;;;5027824;28;20500;-72
2022/02/01 08:20:57;;;;;;;50.15;28.80;;;102.50;2227.20;;;;;;5043915;28;20245;-72
2022/02/01 08:23:23;;;;;;;44.67;27.50;;;102.60;2227.20;;;;;;5043467;28;20068;-71
2022/02/01 08:26:03;;;;;;;43.67;24.35;;;102.90;2227.20;;;;;;5101493;27;20413;-71
2022/02/01 08:28:30;;;;;;;54.40;24.27;;;103.20;2227.20;;;;;;5093872;28;20025;-71
2022/02/01 08:30:55;;;;;;;35.88;22.30;;;128.00;2252.80;;;;;;5086297;28;20043;-71
2022/02/01 08:33:25;;;;;;;36.88;21.35;;;128.20;2252.80;;;;;;5084318;28;20028;-71
2022/02/01 08:35:50;;;;;;;33.30;20.35;;;128.50;2252.80;;;;;;5101348;28;20024;-71
2022/02/01 08:38:18;;;;;;;32.65;18.38;;;128.60;2252.80;;;;;;5087414;28;20035;-71
2022/02/01 08:40:44;;;;;;;31.45;20.25;;;128.70;2252.80;;;;;;5089163;28;20074;-71
2022/02/01 08:43:11;;;;;;;40.72;19.95;;;128.80;2252.80;;;;;;5086188;28;20387;-70
2022/02/01 08:45:36;;;;;;;29.67;18.23;;;153.60;2252.80;;;;;;5087116;28;20025;-71
2022/02/01 08:48:02;;;;;;;38.08;21.27;;;153.60;2252.80;;;;;;5087779;28;20409;-72
2022/02/01 08:50:32;;;;;;;31.92;20.65;;;153.60;2252.80;;;;;;5086846;28;20021;-70
2022/02/01 08:53:10;;;;;;;32.90;21.35;;;128.80;2252.80;;;;;;5087857;28;20466;-71
2022/02/01 08:55:39;;;;;;;33.70;19.23;;;128.90;2252.80;;;;;;5088037;28;20119;-71
2022/02/01 08:58:07;;;;;;;26.85;16.75;;;128.90;2252.80;;;;;;5087568;28;20050;-71
2022/02/01 09:00:34;;;;;;;30.77;17.70;;;128.60;2252.80;;;;;;5086683;28;20048;-71
2022/02/01 09:03:03;;;;;;;28.75;16.98;;;128.40;2252.80;;;;;;5087782;28;20382;-74
2022/02/01 09:05:30;;;;;;;26.60;17.38;;;128.20;2252.80;;;;;;5087683;28;20028;-71
2022/02/01 09:07:58;;;;;;;33.80;16.65;;;128.30;2252.80;;;;;;5086897;28;20025;-70
2022/02/01 09:10:24;;;;;;;27.38;17.55;;;128.40;2252.80;;;;;;5087012;28;20021;-71
2022/02/01 09:12:50;;;;;;;41.97;18.48;;;128.40;2252.80;;;;;;5086498;28;20179;-71
2022/02/01 09:15:16;;;;;;;35.53;18.67;;;128.40;2252.80;;;;;;5085905;28;20028;-71
2022/02/01 09:17:45;;;;;;;178.68;37.40;;;128.40;2252.80;;;;;;5087247;28;20031;-71
2022/02/01 09:20:11;;;;;;;134.27;30.77;;;128.50;2252.80;;;;;;5086112;28;20030;-71
2022/02/01 09:22:37;;;;;;;633.25;115.75;;;128.50;2252.80;;;;;;5087285;28;20478;-72
2022/02/01 09:25:03;;;;;;;91.65;27.20;;;128.70;2252.80;;;;;;5087107;28;20059;-71
2022/02/01 09:27:29;;;;;;;343.05;57.17;;;128.70;2252.80;;;;;;5087400;28;20102;-71
2022/02/01 09:29:56;;;;;;;28.63;17.33;;;128.80;2252.80;;;;;;5087447;28;20782;-71
2022/02/01 09:32:24;;;;;;;81.25;21.00;;;128.80;2252.80;;;;;;5086583;28;20057;-71
2022/02/01 09:34:51;;;;;;;75.95;22.33;;;128.90;2252.80;;;;;;5086615;28;20032;-71
2022/02/01 09:37:17;;;;;;;35.47;18.95;;;128.90;2252.80;;;;;;5073802;28;20713;-71
2022/02/01 09:39:42;;;;;;;133.77;29.92;;;128.80;2252.80;;;;;;5073402;28;20467;-71
2022/02/01 09:42:08;;;;;;;127.18;28.63;;;128.90;2252.80;;;;;;5070510;28;20098;-71
2022/02/01 09:44:35;;;;;;;151.85;33.10;;;128.90;2252.80;;;;;;5073491;28;20506;-71
2022/02/01 09:47:00;;;;;;;111.05;26.92;;;128.90;2252.80;;;;;;5073201;28;20108;-71
2022/02/01 09:49:26;;;;;;;131.63;32.97;;;128.90;2252.80;;;;;;5073046;28;20087;-71
2022/02/01 09:51:57;;;;;;;144.68;35.85;;;128.80;2252.80;;;;;;5073235;28;20027;-71
2022/02/01 09:54:28;;;;;;;87.85;23.20;;;128.70;2252.80;;;;;;5072888;28;20047;-71
2022/02/01 09:56:55;;;;;;;54.25;19.45;;;128.80;2252.80;;;;;;5071903;28;20059;-71
2022/02/01 09:59:31;;;;;;;44.95;18.10;;;128.70;2252.80;;;;;;5070469;28;20021;-71
2022/02/01 10:02:04;;;;;;;29.52;17.42;;;128.90;2252.80;;;;;;5072742;28;20059;-71
2022/02/01 10:04:29;;;;;;;35.38;17.60;;;153.60;2252.80;;;;;;5072534;28;20039;-71
2022/02/01 10:07:15;;;;;;;30.77;16.40;;;153.60;2252.80;;;;;;5072665;28;20025;-71
2022/02/01 10:09:51;;;;;;;33.67;18.25;;;153.70;2252.80;;;;;;5076673;28;20025;-71
2022/02/01 10:12:19;;;;;;;31.60;16.35;;;153.70;2252.80;;;;;;5075084;28;20624;-71
2022/02/01 10:14:53;;;;;;;63.00;23.90;;;153.70;2252.80;;;;;;5071230;28;20344;-72
2022/02/01 10:17:41;;;;;;;49.25;22.50;;;153.70;2252.80;;;;;;5086678;28;20059;-71
2022/02/01 10:20:07;;;;;;;40.05;18.27;;;153.80;2252.80;;;;;;5072678;28;20489;-72
2022/02/01 10:22:35;;;;;;;47.67;19.02;;;153.90;2252.80;;;;;;5071478;28;20032;-72
2022/02/01 10:25:04;;;;;;;42.20;17.60;;;153.80;2252.80;;;;;;5071178;28;20052;-71
2022/02/01 10:27:32;;;;;;;49.60;20.02;;;153.70;2252.80;;;;;;5071312;28;20024;-72
2022/02/01 10:30:16;;;;;;;34.72;19.90;;;153.60;2252.80;;;;;;5078407;28;20044;-72
2022/02/01 10:33:13;;;;;;;29.10;17.75;;;153.80;2252.80;;;;;;5086637;28;20062;-72
2022/02/01 10:35:56;;;;;;;30.25;17.70;;;153.70;2252.80;;;;;;5071127;28;20048;-72
2022/02/01 10:38:30;;;;;;;33.75;16.05;;;153.60;2252.80;;;;;;5070907;28;20028;-71
2022/02/01 10:40:55;;;;;;;28.20;17.33;;;153.70;2252.80;;;;;;5071238;28;20051;-73
2022/02/01 10:43:26;;;;;;;26.20;16.17;;;153.80;2252.80;;;;;;5074627;28;20471;-72
2022/02/01 10:45:53;;;;;;;32.42;16.45;;;153.90;2252.80;;;;;;5069854;28;20056;-71
2022/02/01 10:48:22;;;;;;;28.35;16.02;;;153.90;2252.80;;;;;;5073103;28;20032;-71
2022/02/01 10:51:00;;;;;;;28.15;15.63;;;153.90;2252.80;;;;;;5070862;28;20047;-71
2022/02/01 10:53:26;;;;;;;32.00;18.00;;;153.70;2252.80;;;;;;5071064;28;20021;-72
2022/02/01 10:55:52;;;;;;;37.63;18.85;;;153.70;2252.80;;;;;;5071923;28;20044;-72
2022/02/01 10:58:18;;;;;;;30.80;19.67;;;153.60;2252.80;;;;;;5070421;28;20037;-72
2022/02/01 11:00:46;;;;;;;29.60;18.48;;;153.70;2252.80;;;;;;5071433;28;20029;-71
2022/02/01 11:03:15;;;;;;;31.13;17.30;;;153.80;2252.80;;;;;;5069442;28;20021;-71
2022/02/01 11:05:48;;;;;;;32.97;17.88;;;153.70;2252.80;;;;;;5070696;28;20036;-71
2022/02/01 11:08:18;;;;;;;30.30;16.02;;;153.70;2252.80;;;;;;5069692;28;20032;-72
2022/02/01 11:10:47;;;;;;;26.35;17.00;;;153.60;2252.80;;;;;;5071506;28;20021;-72
2022/02/01 11:13:13;;;;;;;35.60;17.30;;;153.60;2252.80;;;;;;5071082;28;20028;-72
2022/02/01 11:15:39;;;;;;;38.25;19.58;;;153.60;2252.80;;;;;;5075083;28;20025;-73
2022/02/01 11:18:12;;;;;;;34.05;16.77;;;153.60;2252.80;;;;;;5078987;28;20794;-71
2022/02/01 11:20:39;;;;;;;35.35;18.20;;;128.80;2252.80;;;;;;5070787;28;20035;-70
2022/02/01 11:23:10;;;;;;;27.55;16.95;;;128.90;2252.80;;;;;;5071024;28;20032;-71
2022/02/01 11:25:49;;;;;;;29.02;18.02;;;128.70;2252.80;;;;;;5070351;28;20050;-71
2022/02/01 11:29:02;;;;;;;30.50;17.42;;;128.70;2252.80;;;;;;5071632;28;20028;-70
2022/02/01 11:31:29;;;;;;;37.95;17.65;;;128.70;2252.80;;;;;;5071250;28;20028;-71
2022/02/01 11:33:55;;;;;;;29.90;17.05;;;128.50;2252.80;;;;;;5071052;28;20035;-71
2022/02/01 11:36:21;;;;;;;32.47;18.92;;;128.40;2252.80;;;;;;5083061;28;20078;-71
2022/02/01 11:38:58;;;;;;;31.10;17.13;;;128.40;2252.80;;;;;;5090254;28;20030;-71
2022/02/01 11:41:33;;;;;;;37.10;19.80;;;128.40;2252.80;;;;;;5085508;28;20020;-70
2022/02/01 11:44:24;;;;;;;31.92;18.42;;;128.30;2252.80;;;;;;5071168;28;20051;-71
2022/02/01 11:47:09;;;;;;;33.72;20.08;;;128.40;2252.80;;;;;;5009219;28;20073;-70
2022/02/01 11:49:48;;;;;;;31.60;18.77;;;128.50;2252.80;;;;;;4992592;28;20026;-70
2022/02/01 11:52:15;;;;;;;30.23;17.35;;;128.70;2252.80;;;;;;5009402;28;20034;-71
2022/02/01 11:54:45;;;;;;;28.65;17.30;;;128.70;2252.80;;;;;;4992603;28;20050;-71
2022/02/01 11:57:24;;;;;;;32.05;17.13;;;128.70;2252.80;;;;;;5009304;28;20042;-72
2022/02/01 11:59:51;;;;;;;24.88;16.00;;;128.70;2252.80;;;;;;5003619;28;20026;-71
2022/02/01 12:02:36;;;;;;;31.30;18.75;;;128.70;2252.80;;;;;;4992470;28;20069;-71
2022/02/01 12:05:18;;;;;;;28.23;17.67;;;128.70;2252.80;;;;;;5008769;28;20044;-71
2022/02/01 12:08:01;;;;;;;23.85;14.45;;;128.70;2252.80;;;;;;5009551;28;20120;-71
2022/02/01 12:10:27;;;;;;;25.45;13.98;;;128.70;2252.80;;;;;;4995805;28;20054;-71
2022/02/01 12:12:57;;;;;;;22.85;13.65;;;128.70;2252.80;;;;;;4989742;28;20053;-71
2022/02/01 12:15:34;;;;;;;24.80;13.75;;;128.80;2252.80;;;;;;5009310;28;20030;-71
2022/02/01 12:18:41;;;;;;;26.48;18.15;;;128.90;2252.80;;;;;;5008864;28;20524;-71
2022/02/01 12:21:41;;;;;;;28.00;16.67;;;128.90;2252.80;;;;;;4950008;29;20040;-71
2022/02/01 12:24:07;;;;;;;30.95;15.75;;;153.60;2252.80;;;;;;4969753;28;20054;-72
2022/02/01 12:26:41;;;;;;;27.05;17.17;;;153.60;2252.80;;;;;;5001163;28;20030;-71
2022/02/01 12:29:09;;;;;;;24.33;15.25;;;153.60;2252.80;;;;;;5003658;28;20029;-71
2022/02/01 12:31:38;;;;;;;27.10;14.90;;;153.60;2252.80;;;;;;4995541;28;20049;-71
2022/02/01 12:34:05;;;;;;;32.03;16.92;;;153.70;2252.80;;;;;;4999345;28;20018;-71
2022/02/01 12:36:38;;;;;;;24.65;15.77;;;154.00;2252.80;;;;;;5006905;28;20042;-71
2022/02/01 12:39:33;;;;;;;31.98;17.77;;;154.00;2252.80;;;;;;5004473;28;20038;-72
2022/02/01 12:42:06;;;;;;;27.13;16.55;;;154.10;2252.80;;;;;;5004515;28;20521;-71
2022/02/01 12:47:05;;;;;;;26.98;16.55;;;154.10;2252.80;;;;;;5005122;28;20030;-71
2022/02/01 12:49:52;;;;;;;25.52;15.50;;;154.10;2252.80;;;;;;5001517;28;20041;-71
2022/02/01 12:52:34;;;;;;;32.22;17.48;;;154.10;2252.80;;;;;;4999727;28;20048;-71
2022/02/01 12:55:03;;;;;;;27.27;17.33;;;154.00;2252.80;;;;;;4989551;28;20046;-70
2022/02/01 12:57:31;;;;;;;32.03;18.48;;;154.10;2252.80;;;;;;5029803;28;20032;-71
2022/02/01 13:00:11;;;;;;;31.52;19.60;;;154.10;2252.80;;;;;;5069020;28;20031;-71
2022/02/01 13:02:37;;;;;;;32.72;19.40;;;154.10;2252.80;;;;;;5070013;28;20047;-71
2022/02/01 13:05:11;;;;;;;28.30;20.48;;;154.20;2252.80;;;;;;5069647;28;20059;-71
2022/02/01 13:16:59;;;;;;;31.42;17.85;;;154.30;2252.80;;;;;;5072973;28;20063;-72
2022/02/01 13:21:55;;;;;;;25.60;15.90;;;154.10;2252.80;;;;;;5072703;28;20035;-71
2022/02/01 13:24:30;;;;;;;21.63;14.10;;;154.00;2252.80;;;;;;5067344;28;20061;-72
2022/02/01 13:26:56;;;;;;;29.25;17.42;;;153.90;2252.80;;;;;;5069889;28;20398;-71
2022/02/01 13:29:22;;;;;;;22.95;15.25;;;153.80;2252.80;;;;;;5072618;28;20020;-72
2022/02/01 13:31:51;;;;;;;27.05;16.50;;;153.80;2252.80;;;;;;5070810;28;20498;-71
2022/02/01 13:34:26;;;;;;;35.88;17.83;;;153.80;2252.80;;;;;;5072732;28;20092;-72
2022/02/01 13:37:00;;;;;;;28.25;16.73;;;153.90;2252.80;;;;;;5071341;28;20430;-71
2022/02/01 13:39:28;;;;;;;26.30;16.05;;;153.90;2252.80;;;;;;5071693;28;20032;-71
2022/02/01 13:42:00;;;;;;;35.42;18.13;;;154.00;2252.80;;;;;;5071972;28;20403;-71
2022/02/01 13:44:29;;;;;;;31.63;17.50;;;154.00;2252.80;;;;;;5072213;28;20035;-71
2022/02/01 13:47:07;;;;;;;27.85;17.90;;;154.00;2252.80;;;;;;5069662;28;20032;-71
2022/02/01 13:49:34;;;;;;;32.05;20.33;;;154.00;2252.80;;;;;;5071261;28;20391;-71
2022/02/01 13:52:00;;;;;;;43.00;24.42;;;154.10;2252.80;;;;;;5071269;28;20717;-72